Time;durP1;ratioP1;P1;durP2;ratioP2;P2;SDS_P1;SDS_P2;PMS_P1;PMS_P2;Temp;Humidity;BMP_temperature;BMP_pressure;BME280_temperature;BME280_humidity;BME280_pressure;Samples;Min_cycle;Max_cycle;Signal;HPM_P1;HPM_P2
2022/04/23 00:02:19;;;;;;;;;;;;;;;13.59;63.60;101370.69;4953637;29;1813;-92
2022/04/23 00:04:45;;;;;;;;;;;;;;;13.57;63.69;101366.53;4947829;28;1914;-92
2022/04/23 00:07:12;;;;;;;;;;;;;;;13.56;63.68;101365.72;4965453;28;1869;-92
2022/04/23 00:09:38;;;;;;;;;;;;;;;13.55;63.52;101377.56;4940106;29;1444;-92
2022/04/23 00:12:04;;;;;;;;;;;;;;;13.54;63.60;101373.22;4940192;29;1450;-93
2022/04/23 00:14:37;;;;;;;;;;;;;;;13.54;63.66;101375.09;4916725;29;1685;-92
2022/04/23 00:17:03;;;;;;;;;;;;;;;13.53;63.80;101373.41;4944434;29;1901;-92
2022/04/23 00:19:29;;;;;;;;;;;;;;;13.52;63.55;101374.47;4919364;29;1472;-92
2022/04/23 00:21:56;;;;;;;;;;;;;;;13.51;63.33;101376.34;4920811;29;1285;-92
2022/04/23 00:24:22;;;;;;;;;;;;;;;13.51;63.43;101370.94;4919230;29;1866;-93
2022/04/23 00:26:48;;;;;;;;;;;;;;;13.50;63.63;101379.28;4918810;29;1919;-93
2022/04/23 00:29:14;;;;;;;;;;;;;;;13.50;63.41;101381.97;4933631;29;1902;-92
2022/04/23 00:31:41;;;;;;;;;;;;;;;13.48;63.30;101378.69;4922132;29;1564;-93
2022/04/23 00:34:08;;;;;;;;;;;;;;;13.47;63.36;101382.41;4921629;29;1490;-92
2022/04/23 00:36:34;;;;;;;;;;;;;;;13.46;63.46;101387.00;4919265;29;1961;-91
2022/04/23 00:39:01;;;;;;;;;;;;;;;13.46;63.50;101386.19;4924865;29;1390;-92
2022/04/23 00:41:46;;;;;;;;;;;;;;;13.44;63.32;101389.09;4923760;29;1621;-90
2022/04/23 00:44:13;;;;;;;;;;;;;;;13.44;63.41;101391.78;4923363;29;1523;-93
2022/04/23 00:46:39;;;;;;;;;;;;;;;13.43;63.49;101394.72;4926168;29;1985;-92
2022/04/23 00:49:06;;;;;;;;;;;;;;;13.43;63.15;101397.44;4953320;29;1493;-92
2022/04/23 00:51:32;;;;;;;;;;;;;;;13.41;63.39;101392.22;4921379;29;1807;-92
2022/04/23 00:53:59;;;;;;;;;;;;;;;13.40;63.35;101394.13;4922140;29;1883;-92
2022/04/23 00:56:25;;;;;;;;;;;;;;;13.40;63.30;101396.00;4940119;29;1455;-92
2022/04/23 00:58:52;;;;;;;;;;;;;;;13.38;63.47;101398.94;4939600;29;1491;-92
2022/04/23 01:01:23;;;;;;;;;;;;;;;13.38;63.13;101409.75;4923592;29;1850;-92
2022/04/23 01:03:49;;;;;;;;;;;;;;;13.37;63.17;101404.56;4916304;29;2015;-92
2022/04/23 01:06:16;;;;;;;;;;;;;;;13.35;63.19;101409.34;4931643;29;1914;-92
2022/04/23 01:08:42;;;;;;;;;;;;;;;13.36;63.26;101419.97;4922846;29;1506;-92
2022/04/23 01:11:08;;;;;;;;;;;;;;;13.35;63.20;101421.00;4940049;29;1327;-93
2022/04/23 01:13:35;;;;;;;;;;;;;;;13.33;63.29;101420.41;4944294;28;1898;-93
2022/04/23 01:16:02;;;;;;;;;;;;;;;13.31;63.20;101422.47;4957443;29;1672;-93
2022/04/23 01:18:28;;;;;;;;;;;;;;;13.31;63.20;101430.59;4951470;29;1505;-92
2022/04/23 01:20:56;;;;;;;;;;;;;;;13.30;63.28;101426.25;4944806;29;1231;-92
2022/04/23 01:23:22;;;;;;;;;;;;;;;13.29;63.15;101432.69;4953697;29;1566;-93
2022/04/23 01:25:49;;;;;;;;;;;;;;;13.29;63.04;101427.25;4950110;29;1996;-92
2022/04/23 01:28:15;;;;;;;;;;;;;;;13.29;63.17;101429.16;4949132;28;1866;-92
2022/04/23 01:30:41;;;;;;;;;;;;;;;13.27;63.09;101426.66;4954423;29;1926;-92
2022/04/23 01:33:08;;;;;;;;;;;;;;;13.26;63.11;101426.88;4946663;29;1717;-92
2022/04/23 01:35:34;;;;;;;;;;;;;;;13.25;63.27;101434.16;4947375;29;2042;-92
2022/04/23 01:38:00;;;;;;;;;;;;;;;13.23;63.18;101436.22;4953137;28;1648;-93
2022/04/23 01:40:27;;;;;;;;;;;;;;;13.25;63.17;101445.00;4958096;29;1548;-92
2022/04/23 01:42:53;;;;;;;;;;;;;;;13.23;62.95;101438.91;4956674;29;1889;-92
2022/04/23 01:45:19;;;;;;;;;;;;;;;13.21;63.09;101441.03;4955150;28;1985;-92
2022/04/23 01:47:46;;;;;;;;;;;;;;;13.21;62.97;101445.59;4956663;29;1390;-92
2022/04/23 01:50:12;;;;;;;;;;;;;;;13.19;63.01;101445.81;4957030;29;1616;-93
2022/04/23 01:52:39;;;;;;;;;;;;;;;13.19;62.97;101446.66;4950114;29;1555;-93
2022/04/23 01:55:05;;;;;;;;;;;;;;;13.17;63.11;101443.31;4955015;29;1884;-92
2022/04/23 01:57:31;;;;;;;;;;;;;;;13.16;62.99;101438.97;4949941;29;1521;-92
2022/04/23 01:59:57;;;;;;;;;;;;;;;13.17;62.89;101447.91;4942812;29;5334;-93
2022/04/23 02:02:24;;;;;;;;;;;;;;;13.16;62.86;101440.84;4946767;29;5047;-92
2022/04/23 02:04:50;;;;;;;;;;;;;;;13.14;62.93;101441.03;4948952;29;1619;-92
2022/04/23 02:07:17;;;;;;;;;;;;;;;13.14;63.03;101443.75;4945838;29;5497;-92
2022/04/23 02:09:43;;;;;;;;;;;;;;;13.14;63.01;101437.50;4954398;29;1505;-92
2022/04/23 02:12:09;;;;;;;;;;;;;;;13.11;63.01;101438.78;4953809;28;1864;-93
2022/04/23 02:14:36;;;;;;;;;;;;;;;13.11;62.90;101425.25;4957385;29;1326;-92
2022/04/23 02:17:03;;;;;;;;;;;;;;;13.10;62.86;101433.59;4946710;29;1956;-92
2022/04/23 02:19:29;;;;;;;;;;;;;;;13.09;62.82;101430.06;4945272;29;5384;-93
2022/04/23 02:21:55;;;;;;;;;;;;;;;13.08;62.74;101422.97;4956030;29;1310;-93
2022/04/23 02:24:22;;;;;;;;;;;;;;;13.07;62.92;101428.63;4956761;29;1423;-92
2022/04/23 02:26:48;;;;;;;;;;;;;;;13.06;62.86;101427.78;4953422;29;1911;-93
2022/04/23 02:29:15;;;;;;;;;;;;;;;13.06;62.65;101426.94;4952441;29;1442;-92
2022/04/23 02:31:41;;;;;;;;;;;;;;;13.05;62.82;101425.28;4948542;29;2764;-92
2022/04/23 02:34:07;;;;;;;;;;;;;;;13.04;62.90;101423.63;4943831;29;1557;-93
2022/04/23 02:36:36;;;;;;;;;;;;;;;13.03;62.77;101420.09;4949017;29;1626;-92
2022/04/23 02:39:02;;;;;;;;;;;;;;;13.02;62.69;101423.84;4950144;29;1195;-92
2022/04/23 02:41:29;;;;;;;;;;;;;;;13.01;62.96;101426.78;4944481;28;1542;-92
2022/04/23 02:43:57;;;;;;;;;;;;;;;13.01;62.76;101422.19;4952779;29;1358;-92
2022/04/23 02:46:24;;;;;;;;;;;;;;;13.00;62.74;101427.78;4948946;29;1951;-92
2022/04/23 02:48:50;;;;;;;;;;;;;;;12.99;62.73;101423.44;4951607;29;1941;-92
2022/04/23 02:51:16;;;;;;;;;;;;;;;12.98;62.61;101421.78;4957538;29;1086;-92
2022/04/23 02:53:43;;;;;;;;;;;;;;;12.98;62.68;101419.09;4955269;29;1525;-93
2022/04/23 02:56:13;;;;;;;;;;;;;;;12.95;62.81;101420.34;4953842;28;2004;-92
2022/04/23 02:58:39;;;;;;;;;;;;;;;12.94;62.69;101415.97;4955763;29;1320;-92
2022/04/23 03:01:09;;;;;;;;;;;;;;;12.93;62.73;101420.53;4951759;29;1802;-92
2022/04/23 03:03:37;;;;;;;;;;;;;;;12.91;62.72;101411.84;4970985;28;1831;-92
2022/04/23 03:06:07;;;;;;;;;;;;;;;12.90;62.59;101415.56;4949799;29;1976;-92
2022/04/23 03:08:33;;;;;;;;;;;;;;;12.89;62.75;101413.91;4939779;29;1454;-92
2022/04/23 03:11:00;;;;;;;;;;;;;;;12.88;62.74;101417.69;4942715;28;1581;-93
2022/04/23 03:13:26;;;;;;;;;;;;;;;12.88;62.44;101414.13;4955740;29;1279;-92
2022/04/23 03:15:53;;;;;;;;;;;;;;;12.87;62.71;101418.69;4951724;29;2096;-92
2022/04/23 03:18:19;;;;;;;;;;;;;;;12.84;62.53;101416.41;4951663;29;1337;-92
2022/04/23 03:20:46;;;;;;;;;;;;;;;12.84;62.72;101418.31;4955575;29;1585;-92
2022/04/23 03:23:12;;;;;;;;;;;;;;;12.83;62.81;101416.66;4955024;29;1477;-92
2022/04/23 03:25:38;;;;;;;;;;;;;;;12.83;62.44;101422.06;4956089;29;1914;-92
2022/04/23 03:28:04;;;;;;;;;;;;;;;12.80;62.65;101423.31;4954616;29;1621;-92
2022/04/23 03:30:31;;;;;;;;;;;;;;;12.79;62.42;101424.34;4949738;29;1543;-92
2022/04/23 03:32:58;;;;;;;;;;;;;;;12.78;62.44;101422.69;4949457;29;1895;-92
2022/04/23 03:35:24;;;;;;;;;;;;;;;12.77;62.66;101437.25;4948776;28;1672;-92
2022/04/23 03:37:50;;;;;;;;;;;;;;;12.75;62.41;101423.09;4956052;29;1404;-92
2022/04/23 03:40:17;;;;;;;;;;;;;;;12.73;62.36;101417.06;4943595;29;1604;-92
2022/04/23 03:42:48;;;;;;;;;;;;;;;12.75;62.41;101430.41;4952146;29;1896;-92
2022/04/23 03:45:14;;;;;;;;;;;;;;;12.72;62.66;101423.53;4955398;29;1528;-92
2022/04/23 03:47:40;;;;;;;;;;;;;;;12.70;62.68;101425.63;4950612;29;2409;-92
2022/04/23 03:50:07;;;;;;;;;;;;;;;12.69;62.40;101422.09;4956414;29;1342;-92
2022/04/23 03:52:33;;;;;;;;;;;;;;;12.68;62.52;101423.13;4954551;29;1948;-92
2022/04/23 03:55:00;;;;;;;;;;;;;;;12.67;62.57;101410.66;4950985;29;2300;-92
2022/04/23 03:57:26;;;;;;;;;;;;;;;12.67;62.46;101423.34;4956844;29;2115;-92
2022/04/23 03:59:53;;;;;;;;;;;;;;;12.66;62.44;101419.81;4955926;29;1331;-92
2022/04/23 04:02:19;;;;;;;;;;;;;;;12.64;62.53;101419.19;4952481;29;2002;-93
2022/04/23 04:04:46;;;;;;;;;;;;;;;12.63;62.52;101422.13;4941798;29;1477;-92
2022/04/23 04:07:12;;;;;;;;;;;;;;;12.61;62.55;101426.88;4954609;29;1973;-92
2022/04/23 04:09:39;;;;;;;;;;;;;;;12.60;62.26;101425.25;4957754;28;2379;-92
2022/04/23 04:12:06;;;;;;;;;;;;;;;12.60;62.50;101423.38;4950294;29;1943;-92
2022/04/23 04:14:34;;;;;;;;;;;;;;;12.58;62.54;101432.72;4953952;28;1797;-92
2022/04/23 04:17:01;;;;;;;;;;;;;;;12.56;62.44;101434.78;4946102;29;1998;-92
2022/04/23 04:19:27;;;;;;;;;;;;;;;12.55;62.56;101435.84;4945445;29;1580;-92
2022/04/23 04:21:54;;;;;;;;;;;;;;;12.53;62.42;101422.56;4953582;28;1696;-92
2022/04/23 04:24:20;;;;;;;;;;;;;;;12.52;62.23;101428.16;4954425;28;1584;-92
2022/04/23 04:26:47;;;;;;;;;;;;;;;12.51;62.40;101430.03;4958463;28;1988;-92
2022/04/23 04:29:13;;;;;;;;;;;;;;;12.49;62.43;101424.84;4947928;29;2957;-92
2022/04/23 04:31:49;;;;;;;;;;;;;;;12.49;62.58;101432.13;4953038;29;5541;-93
2022/04/23 04:34:15;;;;;;;;;;;;;;;12.47;62.26;101431.47;4951569;29;1461;-92
2022/04/23 04:36:41;;;;;;;;;;;;;;;12.45;62.41;101431.72;4957695;28;5026;-92
2022/04/23 04:39:08;;;;;;;;;;;;;;;12.44;62.48;101442.72;4951118;29;1807;-92
2022/04/23 04:41:35;;;;;;;;;;;;;;;12.43;62.23;101443.75;4952422;29;1788;-93
2022/04/23 04:44:01;;;;;;;;;;;;;;;12.41;62.25;101445.84;4951689;29;1513;-92
2022/04/23 04:46:28;;;;;;;;;;;;;;;12.39;62.46;101443.34;4957619;28;1953;-92
2022/04/23 04:48:54;;;;;;;;;;;;;;;12.39;62.37;101448.75;4957613;29;5114;-93
2022/04/23 04:51:20;;;;;;;;;;;;;;;12.37;62.24;101452.72;4950918;29;1617;-92
2022/04/23 04:53:47;;;;;;;;;;;;;;;12.36;62.30;101448.34;4951493;29;1419;-92
2022/04/23 04:56:13;;;;;;;;;;;;;;;12.36;62.46;101451.06;4955181;29;1935;-92
2022/04/23 04:58:43;;;;;;;;;;;;;;;12.34;62.43;101451.25;4955844;29;1462;-92
2022/04/23 05:01:09;;;;;;;;;;;;;;;12.32;62.39;101450.63;4951101;29;3215;-92
2022/04/23 05:03:36;;;;;;;;;;;;;;;12.31;62.36;101459.78;4947447;29;1869;-92
2022/04/23 05:06:02;;;;;;;;;;;;;;;12.30;62.33;101457.31;4950119;29;1640;-92
2022/04/23 05:08:29;;;;;;;;;;;;;;;12.30;62.34;101463.53;4950970;29;1915;-92
2022/04/23 05:10:55;;;;;;;;;;;;;;;12.30;62.31;101460.00;4943526;29;1658;-93
2022/04/23 05:13:21;;;;;;;;;;;;;;;12.28;62.26;101455.63;4957087;29;1426;-92
2022/04/23 05:15:48;;;;;;;;;;;;;;;12.26;62.08;101454.16;4958305;29;2072;-92
2022/04/23 05:18:15;;;;;;;;;;;;;;;12.26;62.13;101456.88;4953151;29;1841;-92
2022/04/23 05:20:41;;;;;;;;;;;;;;;12.25;62.11;101455.22;4951136;28;1912;-92
2022/04/23 05:23:08;;;;;;;;;;;;;;;12.25;62.25;101458.75;4953506;29;1863;-92
2022/04/23 05:25:34;;;;;;;;;;;;;;;12.24;62.20;101465.19;4955244;29;1883;-92
2022/04/23 05:28:00;;;;;;;;;;;;;;;12.23;62.03;101458.09;4939221;29;1977;-93
2022/04/23 05:30:27;;;;;;;;;;;;;;;12.22;62.19;101452.94;4947471;29;1576;-92
2022/04/23 05:32:53;;;;;;;;;;;;;;;12.21;62.00;101452.09;4948542;29;1841;-92
2022/04/23 05:35:19;;;;;;;;;;;;;;;12.21;61.95;101453.97;4955518;29;1480;-92
2022/04/23 05:37:46;;;;;;;;;;;;;;;12.22;61.94;101461.03;4950149;28;1580;-92
2022/04/23 05:40:12;;;;;;;;;;;;;;;12.21;62.03;101457.50;4948739;29;1604;-92
2022/04/23 05:42:38;;;;;;;;;;;;;;;12.20;62.06;101463.94;4956048;29;1982;-92
2022/04/23 05:45:05;;;;;;;;;;;;;;;12.20;61.83;101460.41;4956879;29;1640;-92
2022/04/23 05:47:31;;;;;;;;;;;;;;;12.19;61.90;101464.16;4954621;29;2085;-92
2022/04/23 05:49:57;;;;;;;;;;;;;;;12.18;61.81;101466.03;4956539;29;1883;-92
2022/04/23 05:52:24;;;;;;;;;;;;;;;12.18;61.76;101460.63;4951543;29;1545;-93
2022/04/23 05:54:50;;;;;;;;;;;;;;;12.18;61.70;101459.81;4949348;29;1934;-91
2022/04/23 05:57:16;;;;;;;;;;;;;;;12.18;61.65;101459.81;4955189;28;2305;-92
2022/04/23 05:59:43;;;;;;;;;;;;;;;12.16;61.89;101457.28;4957630;29;1152;-92
2022/04/23 06:02:13;;;;;;;;;;;;;;;12.14;61.86;101464.75;4950366;28;1854;-92
2022/04/23 06:04:39;;;;;;;;;;;;;;;12.14;61.66;101467.47;4957001;29;1335;-92
2022/04/23 06:07:05;;;;;;;;;;;;;;;12.14;61.90;101463.94;4954109;29;1907;-92
2022/04/23 06:09:32;;;;;;;;;;;;;;;12.12;61.82;101452.50;4947275;29;1158;-92
2022/04/23 06:11:58;;;;;;;;;;;;;;;12.12;61.65;101458.75;4957385;29;1281;-91
2022/04/23 06:14:24;;;;;;;;;;;;;;;12.12;61.80;101456.06;4955733;29;1565;-92
2022/04/23 06:16:51;;;;;;;;;;;;;;;12.12;61.51;101453.38;4950551;29;1892;-92
2022/04/23 06:19:17;;;;;;;;;;;;;;;12.11;61.45;101454.38;4948404;29;2661;-92
2022/04/23 06:21:43;;;;;;;;;;;;;;;12.11;61.73;101453.56;4955999;29;1347;-93
2022/04/23 06:24:10;;;;;;;;;;;;;;;12.11;61.67;101462.47;4955884;29;1344;-92
2022/04/23 06:26:36;;;;;;;;;;;;;;;12.11;61.67;101464.34;4946140;29;1989;-92
2022/04/23 06:29:02;;;;;;;;;;;;;;;12.09;61.61;101456.47;4946315;28;2053;-93
2022/04/23 06:31:29;;;;;;;;;;;;;;;12.09;61.37;101456.47;4951962;28;1892;-91
2022/04/23 06:33:55;;;;;;;;;;;;;;;12.09;61.36;101442.97;4949190;29;1703;-92
2022/04/23 06:36:21;;;;;;;;;;;;;;;12.09;61.29;101451.06;4946993;29;1550;-93
2022/04/23 06:38:48;;;;;;;;;;;;;;;12.07;61.30;101438.81;4948184;29;1599;-93
2022/04/23 06:41:14;;;;;;;;;;;;;;;12.07;61.35;101439.66;4947380;29;1147;-94
2022/04/23 06:43:40;;;;;;;;;;;;;;;12.06;61.35;101435.28;4943862;29;1610;-92
2022/04/23 06:46:07;;;;;;;;;;;;;;;12.05;61.40;101437.13;4952075;28;2024;-93
2022/04/23 06:48:33;;;;;;;;;;;;;;;12.05;61.41;101437.13;4950179;29;1926;-92
2022/04/23 06:50:59;;;;;;;;;;;;;;;12.04;61.23;101440.88;4962230;28;5127;-94
2022/04/23 06:53:26;;;;;;;;;;;;;;;12.04;61.13;101437.34;4944511;29;5006;-93
2022/04/23 06:55:52;;;;;;;;;;;;;;;12.04;61.24;101443.59;4951388;29;2070;-93
2022/04/23 06:58:19;;;;;;;;;;;;;;;12.03;61.35;101441.94;4952451;29;1752;-92
2022/04/23 07:00:45;;;;;;;;;;;;;;;12.02;61.22;101431.31;4955325;29;2019;-92
2022/04/23 07:03:12;;;;;;;;;;;;;;;12.02;61.30;101434.03;4939421;29;1870;-91
2022/04/23 07:05:38;;;;;;;;;;;;;;;12.01;61.31;101435.06;4938168;29;1165;-91
2022/04/23 07:08:05;;;;;;;;;;;;;;;12.02;61.30;101434.03;4943109;29;1903;-92
2022/04/23 07:10:31;;;;;;;;;;;;;;;12.01;61.10;101427.81;4942076;29;1392;-92
2022/04/23 07:12:58;;;;;;;;;;;;;;;12.00;61.12;101436.94;4943008;29;1300;-92
2022/04/23 07:15:24;;;;;;;;;;;;;;;12.00;61.05;101434.25;4951754;28;2129;-92
2022/04/23 07:17:51;;;;;;;;;;;;;;;12.00;61.06;101434.25;4947146;29;2012;-92
2022/04/23 07:20:17;;;;;;;;;;;;;;;11.98;61.10;101430.09;4955181;28;2003;-91
2022/04/23 07:24:03;;;;;;;;;;;;;;;11.99;61.15;101420.94;4952292;29;1955;-92
2022/04/23 07:25:32;;;;;;;;;;;;;;;11.97;61.04;101417.63;4970209;28;2031;-93
2022/04/23 07:27:58;;;;;;;;;;;;;;;11.97;61.16;101418.47;4952700;29;2042;-90
2022/04/23 07:30:25;;;;;;;;;;;;;;;11.97;61.08;101410.38;4957005;28;2303;-92
2022/04/23 07:32:51;;;;;;;;;;;;;;;11.97;61.08;101404.13;4955531;29;2137;-93
2022/04/23 07:38:03;;;;;;;;;;;;;;;11.96;61.02;101403.28;4954698;29;1838;-92
2022/04/23 07:40:30;;;;;;;;;;;;;;;11.96;60.90;101399.75;4952784;29;1863;-92
2022/04/23 07:42:56;;;;;;;;;;;;;;;11.95;60.90;101407.03;4953613;28;1541;-92
2022/04/23 07:45:23;;;;;;;;;;;;;;;11.95;60.76;101404.34;4959661;29;1523;-92
2022/04/23 07:47:49;;;;;;;;;;;;;;;11.94;60.98;101400.00;4958534;29;1978;-92
2022/04/23 07:50:16;;;;;;;;;;;;;;;11.95;60.81;101404.34;4950295;29;1515;-93
2022/04/23 07:52:42;;;;;;;;;;;;;;;11.96;60.92;101400.59;4948786;29;1820;-91
2022/04/23 07:55:09;;;;;;;;;;;;;;;11.95;61.24;101403.50;4946165;29;1837;-92
2022/04/23 07:57:36;;;;;;;;;;;;;;;11.94;60.81;101401.84;4957733;29;1924;-93
2022/04/23 08:00:02;;;;;;;;;;;;;;;11.93;60.78;101401.00;4960049;29;1297;-93
2022/04/23 08:02:29;;;;;;;;;;;;;;;11.93;60.92;101394.78;4957533;29;1860;-93
2022/04/23 08:04:55;;;;;;;;;;;;;;;11.94;60.83;101394.59;4960320;29;1926;-93
2022/04/23 08:07:22;;;;;;;;;;;;;;;11.94;60.80;101399.13;4953652;29;2464;-92
2022/04/23 08:09:48;;;;;;;;;;;;;;;11.93;60.78;101400.19;4958713;29;2138;-92
2022/04/23 08:12:16;;;;;;;;;;;;;;;11.92;60.71;101396.66;4950961;29;1211;-93
2022/04/23 08:14:42;;;;;;;;;;;;;;;11.93;60.66;101394.78;4958113;29;2331;-91
2022/04/23 08:17:11;;;;;;;;;;;;;;;11.93;60.62;101394.78;4957355;29;1998;-92
2022/04/23 08:19:38;;;;;;;;;;;;;;;11.92;60.79;101393.97;4955035;28;1485;-92
2022/04/23 08:22:05;;;;;;;;;;;;;;;11.93;60.59;101398.31;4944103;29;1967;-91
2022/04/23 08:24:31;;;;;;;;;;;;;;;11.91;60.60;101388.75;4947543;29;1875;-92
2022/04/23 08:26:58;;;;;;;;;;;;;;;11.90;60.83;101385.22;4950183;29;1915;-91
2022/04/23 08:32:09;;;;;;;;;;;;;;;11.90;60.66;101379.00;4940272;29;2050;-91
2022/04/23 08:34:35;;;;;;;;;;;;;;;11.90;60.77;101373.59;4959017;28;1181;-93
2022/04/23 08:37:02;;;;;;;;;;;;;;;11.89;60.74;101367.38;4959149;29;1365;-92
2022/04/23 08:39:28;;;;;;;;;;;;;;;11.89;60.78;101370.09;4961893;28;2050;-92
2022/04/23 08:41:55;;;;;;;;;;;;;;;11.90;60.63;101360.94;4965440;28;1923;-91
2022/04/23 08:44:22;;;;;;;;;;;;;;;11.89;60.69;101356.59;4956525;29;1820;-91
2022/04/23 08:46:49;;;;;;;;;;;;;;;11.89;60.82;101356.59;4958950;29;1147;-91
2022/04/23 08:49:16;;;;;;;;;;;;;;;11.89;60.86;101344.97;4953020;29;2036;-93
2022/04/23 08:51:43;;;;;;;;;;;;;;;11.89;60.67;101342.28;4943478;28;2447;-93
2022/04/23 08:54:09;;;;;;;;;;;;;;;11.89;60.72;101340.41;4951787;28;2127;-92
2022/04/23 08:56:36;;;;;;;;;;;;;;;11.89;60.72;101344.97;4944178;28;1987;-91
2022/04/23 08:59:02;;;;;;;;;;;;;;;11.89;60.67;101342.28;4953150;29;1977;-90
2022/04/23 09:01:30;;;;;;;;;;;;;;;11.89;60.77;101336.88;4947560;29;1927;-92
2022/04/23 09:03:57;;;;;;;;;;;;;;;11.90;60.73;101338.53;4957823;29;1872;-92
2022/04/23 09:06:27;;;;;;;;;;;;;;;11.92;60.47;101336.44;4958753;29;1272;-91
2022/04/23 09:08:53;;;;;;;;;;;;;;;11.92;60.59;101331.88;4956314;29;1977;-92
2022/04/23 09:11:20;;;;;;;;;;;;;;;11.90;60.64;101322.31;4958271;29;1185;-91
2022/04/23 09:13:46;;;;;;;;;;;;;;;11.90;60.61;101328.53;4957096;29;2007;-91
2022/04/23 09:24:22;;;;;;;;;;;;;;;11.90;60.57;101315.06;4949216;29;2409;-92
2022/04/23 09:26:49;;;;;;;;;;;;;;;11.91;60.42;101314.03;4945933;29;1437;-91
2022/04/23 09:29:16;;;;;;;;;;;;;;;11.91;60.58;101314.03;4956480;29;1972;-92
2022/04/23 09:31:42;;;;;;;;;;;;;;;11.93;60.36;101308.41;4956324;28;1717;-91
2022/04/23 09:34:08;;;;;;;;;;;;;;;11.93;60.49;101303.00;4957218;29;1878;-92
2022/04/23 09:36:35;;;;;;;;;;;;;;;11.95;60.29;101298.25;4957793;29;1367;-92
2022/04/23 09:39:03;;;;;;;;;;;;;;;11.94;60.46;101304.66;4959143;29;961;-92
2022/04/23 09:41:29;;;;;;;;;;;;;;;11.94;60.35;101302.81;4957502;29;1972;-92
2022/04/23 09:43:56;;;;;;;;;;;;;;;11.94;60.36;101301.94;4958009;29;1868;-92
2022/04/23 09:46:22;;;;;;;;;;;;;;;11.94;60.30;101297.41;4957941;29;1185;-92
2022/04/23 09:48:49;;;;;;;;;;;;;;;11.95;60.32;101295.53;4956942;29;2054;-92
2022/04/23 09:51:15;;;;;;;;;;;;;;;11.96;60.42;101289.91;4957918;29;1848;-92
2022/04/23 09:53:42;;;;;;;;;;;;;;;11.96;60.44;101289.91;4952821;29;1916;-92
2022/04/23 09:56:10;;;;;;;;;;;;;;;11.96;60.23;101287.22;4948002;29;1841;-91
2022/04/23 09:58:37;;;;;;;;;;;;;;;11.98;60.32;101287.00;4951116;29;1987;-92
2022/04/23 10:01:04;;;;;;;;;;;;;;;11.97;60.23;101278.09;4958519;28;1811;-92
2022/04/23 10:03:30;;;;;;;;;;;;;;;11.96;60.32;101281.81;4953484;29;2263;-92
2022/04/23 10:05:57;;;;;;;;;;;;;;;11.96;60.41;101275.59;4945567;29;1972;-92
2022/04/23 10:08:23;;;;;;;;;;;;;;;11.96;60.54;101276.41;4950828;29;1969;-92
2022/04/23 10:10:50;;;;;;;;;;;;;;;11.98;60.32;101266.25;4948941;29;2191;-91
2022/04/23 10:13:16;;;;;;;;;;;;;;;11.98;60.32;101271.63;4955877;29;1932;-91
2022/04/23 10:15:46;;;;;;;;;;;;;;;11.98;60.39;101268.13;4953564;29;1917;-91
2022/04/23 10:18:12;;;;;;;;;;;;;;;11.98;60.40;101268.94;4956560;29;1915;-91
2022/04/23 10:20:40;;;;;;;;;;;;;;;12.00;60.37;101268.72;4957472;28;1604;-92
2022/04/23 10:23:08;;;;;;;;;;;;;;;11.99;60.58;101254.38;4954483;29;1844;-91
2022/04/23 10:25:36;;;;;;;;;;;;;;;12.01;60.42;101251.50;4945536;29;2030;-92
2022/04/23 10:28:03;;;;;;;;;;;;;;;12.01;60.32;101246.91;4949025;28;2083;-92
2022/04/23 10:30:29;;;;;;;;;;;;;;;12.01;60.37;101246.09;4938063;29;1174;-92
2022/04/23 10:32:56;;;;;;;;;;;;;;;12.02;60.44;101245.88;4955601;29;1837;-92
2022/04/23 10:35:22;;;;;;;;;;;;;;;12.04;60.42;101251.06;4971845;28;2241;-91
2022/04/23 10:37:49;;;;;;;;;;;;;;;12.01;60.53;101248.78;4948573;28;1787;-91
2022/04/23 10:40:16;;;;;;;;;;;;;;;12.02;60.52;101245.88;4955888;29;1919;-92
2022/04/23 10:42:43;;;;;;;;;;;;;;;12.02;60.59;101240.47;4956705;28;1134;-92
2022/04/23 10:45:10;;;;;;;;;;;;;;;12.04;60.43;101251.91;4954577;29;1984;-92
2022/04/23 10:47:39;;;;;;;;;;;;;;;12.04;60.51;101240.28;4941729;29;1907;-91
2022/04/23 10:50:05;;;;;;;;;;;;;;;12.04;60.59;101251.91;4956599;29;1248;-92
2022/04/23 10:52:32;;;;;;;;;;;;;;;12.03;60.53;101244.84;4972715;28;1284;-92
2022/04/23 10:54:58;;;;;;;;;;;;;;;12.04;60.69;101249.19;4966670;28;1536;-91
2022/04/23 10:57:25;;;;;;;;;;;;;;;12.04;60.53;101241.09;4953658;28;1881;-93
2022/04/23 10:59:52;;;;;;;;;;;;;;;12.05;60.56;101248.13;4952772;29;1725;-92
2022/04/23 11:02:18;;;;;;;;;;;;;;;12.05;60.72;101245.44;4948846;29;1857;-93
2022/04/23 11:12:14;;;;;;;;;;;;;;;12.07;60.62;101247.94;4953346;29;2169;-92
2022/04/23 11:12:57;;;;;;;;;;;;;;;12.09;60.56;101232.38;4946836;28;2537;-90
2022/04/23 11:15:23;;;;;;;;;;;;;;;12.10;60.62;101225.91;4945159;29;3102;-91
2022/04/23 11:17:53;;;;;;;;;;;;;;;12.11;60.98;101221.34;4947812;29;1745;-92
2022/04/23 11:20:20;;;;;;;;;;;;;;;12.11;60.71;101224.03;4955684;29;1838;-92
2022/04/23 11:22:46;;;;;;;;;;;;;;;12.11;60.74;101211.38;4951986;29;5177;-92
2022/04/23 11:25:13;;;;;;;;;;;;;;;12.12;60.75;101212.19;4941269;29;2023;-92
2022/04/23 11:27:40;;;;;;;;;;;;;;;12.13;60.71;101216.56;4953472;29;1718;-91
2022/04/23 11:32:53;;;;;;;;;;;;;;;12.14;60.72;101210.13;4946860;29;2249;-91
2022/04/23 11:35:20;;;;;;;;;;;;;;;12.13;60.86;101203.88;4956081;29;1197;-92
2022/04/23 11:37:47;;;;;;;;;;;;;;;12.14;60.96;101210.13;4954834;29;2006;-92
2022/04/23 11:40:13;;;;;;;;;;;;;;;12.16;60.75;101197.22;4951289;29;1976;-92
2022/04/23 11:42:40;;;;;;;;;;;;;;;12.15;60.86;101201.81;4944343;29;1345;-92
2022/04/23 11:45:06;;;;;;;;;;;;;;;12.18;60.95;101200.56;4954381;29;1896;-92
2022/04/23 11:47:33;;;;;;;;;;;;;;;12.17;60.93;101197.00;4955966;29;1323;-92
2022/04/23 11:50:00;;;;;;;;;;;;;;;12.18;60.90;101187.88;4950206;29;1977;-91
2022/04/23 11:52:28;;;;;;;;;;;;;;;12.20;60.74;101187.66;4944902;29;2816;-91
2022/04/23 11:54:55;;;;;;;;;;;;;;;12.21;60.83;101192.84;4946336;29;1829;-91
2022/04/23 11:57:21;;;;;;;;;;;;;;;12.21;60.95;101182.06;4952884;29;2050;-92
2022/04/23 11:59:48;;;;;;;;;;;;;;;12.21;60.85;101183.94;4955687;29;2315;-91
2022/04/23 12:02:14;;;;;;;;;;;;;;;12.22;60.82;101178.28;4952667;29;2211;-91
2022/04/23 12:04:41;;;;;;;;;;;;;;;12.21;61.06;101170.41;4948103;29;1833;-91
2022/04/23 12:07:07;;;;;;;;;;;;;;;12.23;61.08;101171.00;4956606;29;1947;-91
2022/04/23 12:09:33;;;;;;;;;;;;;;;12.23;61.01;101169.13;4940854;29;2036;-93
2022/04/23 12:12:02;;;;;;;;;;;;;;;12.24;60.91;101170.81;4943964;29;1202;-92
2022/04/23 12:14:29;;;;;;;;;;;;;;;12.25;61.09;101169.75;4951902;28;1667;-92
2022/04/23 12:16:55;;;;;;;;;;;;;;;12.26;61.13;101174.13;4937874;29;1912;-92
2022/04/23 12:19:22;;;;;;;;;;;;;;;12.28;61.06;101168.50;4955742;29;1266;-92
2022/04/23 12:21:49;;;;;;;;;;;;;;;12.28;61.08;101163.09;4955463;29;1541;-92
2022/04/23 12:24:15;;;;;;;;;;;;;;;12.30;61.12;101161.03;4954498;29;1892;-92
2022/04/23 12:26:42;;;;;;;;;;;;;;;12.29;61.03;101172.84;4956764;29;1519;-92
2022/04/23 12:42:52;;;;;;;;;;;;;;;12.35;61.16;101150.38;4947758;28;2454;-92
2022/04/23 12:50:44;;;;;;;;;;;;;;;12.38;61.14;101143.72;5030117;23;1952;-96
2022/04/23 16:10:02;;;;;;;;;;;;;;;13.37;53.85;101040.13;4985229;28;1875;-95
2022/04/23 16:12:32;;;;;;;;;;;;;;;13.33;54.71;101046.25;4979554;23;3671;-96
2022/04/23 16:14:59;;;;;;;;;;;;;;;13.33;56.02;101044.34;4982947;28;2022;-96
2022/04/23 16:17:28;;;;;;;;;;;;;;;13.32;56.43;101053.50;4975539;28;2266;-96
2022/04/23 16:19:55;;;;;;;;;;;;;;;13.33;56.80;101051.66;4980850;28;1840;-96
2022/04/23 16:22:21;;;;;;;;;;;;;;;13.32;57.10;101050.78;4973943;28;1831;-96
2022/04/23 16:24:48;;;;;;;;;;;;;;;13.34;57.24;101056.81;4975400;28;2578;-96
2022/04/23 16:27:14;;;;;;;;;;;;;;;13.34;57.42;101054.13;4975836;28;2307;-96
2022/04/23 16:29:41;;;;;;;;;;;;;;;13.36;57.31;101062.03;4974499;28;2174;-96
2022/04/23 16:32:08;;;;;;;;;;;;;;;13.35;57.82;101054.94;4982017;28;1205;-96
2022/04/23 16:48:35;;;;;;;;;;;;;;;13.39;59.41;101065.09;4964242;28;1917;-96
2022/04/23 16:51:01;;;;;;;;;;;;;;;13.39;59.44;101056.16;4977405;28;1677;-94
2022/04/23 16:53:28;;;;;;;;;;;;;;;13.40;59.48;101060.50;4963046;28;2602;-96
2022/04/23 16:55:54;;;;;;;;;;;;;;;13.40;59.88;101061.31;4972368;28;2104;-95
2022/04/23 16:58:20;;;;;;;;;;;;;;;13.42;59.92;101063.00;4974378;28;1798;-96